Krabi, Thailand

7:46 AM ICT on March 04, 2015 (GMT +0700)
Ao Nang, Krabi | Change Station
CLOSE
Current Station
Personal Weather Station
Location: Ao Nang, Krabi
Elevation: 177 ft
Nearby Weather Stations

Elev 177 ft 8.05 °N, 98.84 °E | Updated 53 seconds ago

Partly Cloudy
Partly Cloudy
78.3 °F
Feels Like 81 °F
N
0.0
Wind Variable Wind from South
Gusts 0.0 mph

Today
High -- | Low -- °F
--% Chance of Precip.
Yesterday
High -- | Low -- °F
Precip. -- in
6:36 AM 6:35 PM
Waxing Gibbous, 97% visible
Pressure 29.89 in
Visibility 6.2 miles
Clouds Few 3000 ft
Heat Index 81 °F
Dew Point 73 °F
Humidity 85%
Rainfall 0.00 in
Snow Depth Not available.
UV 0.5 out of 12
Pollen Not available.
Air Quality Not available.
Flu Activity Not available.
METAR VTSP 040030Z 10003KT 9999 FEW030 25/23 Q1012 A2989 NOSIG

More Conditions Fewer Conditions

Pressure 29.89 in
Visibility 6.2 miles
Clouds Few 3000 ft
Heat Index 81 °F
Dew Point 73 °F
Humidity 85%
Rainfall 0.00 in
Snow Depth Not available.
UV 0.5 out of 12
Pollen Not available.
Air Quality Not available.
Flu Activity Not available.
METAR VTSP 040030Z 10003KT 9999 FEW030 25/23 Q1012 A2989 NOSIG

More Conditions Fewer Conditions

10-Day Weather Forecast

Almanac

Astronomy

Mar. 04, 2015 Rise Set
Actual Time
Civil Twilight
Nautical Twilight
Astronomical Twilight
Moon
Length of Visible Light
Length of Day
Tomorrow will be .
, % of the Moon is Illuminated

Today's Extremes

Country Highs Country Lows

Community

WunderPhotos

Upload Photos

1,802,340 photos uploaded!

WunderBlogs® & News

Nearby

Air Quality

  Air Quality AQ Index Pollutant
Not available.

Snow Depth

Station Depth Elevation

Earthquake Activity

City Distance Mag. Time & Date
Minimum magnitude displayed is 2.5.

Coastal Water Temperatures

Place Temperature

Nearby Weather Stations